createdAt,value
2019-04-22T00:02:02.428Z,13.43
2019-04-22T00:12:57.902Z,14.23
2019-04-22T00:16:32.062Z,16.33
2019-04-22T00:20:04.347Z,18.17
2019-04-22T00:23:16.909Z,16.70
2019-04-22T00:26:23.698Z,15.63
2019-04-22T00:33:07.810Z,15.43
2019-04-22T00:36:28.873Z,12.53
2019-04-22T00:39:40.913Z,16.83
2019-04-22T00:42:55.390Z,15.67
2019-04-22T00:50:46.692Z,17.10
2019-04-22T00:54:21.540Z,16.17
2019-04-22T00:57:32.379Z,19.57
2019-04-22T01:00:54.561Z,20.90
2019-04-22T01:04:04.364Z,20.50
2019-04-22T01:07:11.531Z,22.50
2019-04-22T01:10:26.337Z,22.70
2019-04-22T01:13:30.417Z,26.33
2019-04-22T01:16:42.977Z,29.00
2019-04-22T01:20:04.985Z,28.43
2019-04-22T01:30:43.884Z,32.23
2019-04-22T01:34:09.967Z,32.83
2019-04-22T01:37:24.082Z,31.87
2019-04-22T01:40:50.831Z,35.43
2019-04-22T01:43:59.068Z,31.77
2019-04-22T01:51:02.324Z,36.10
2019-04-22T01:57:31.744Z,39.50
2019-04-22T02:00:40.257Z,38.60
2019-04-22T02:04:30.281Z,37.87
2019-04-22T02:07:42.364Z,35.30
2019-04-22T02:10:54.624Z,31.93
2019-04-22T02:14:09.187Z,20.60
2019-04-22T02:17:21.076Z,22.00
2019-04-22T02:20:23.094Z,22.93
2019-04-22T02:26:41.970Z,22.13
2019-04-22T02:33:21.844Z,36.73
2019-04-22T02:36:19.311Z,35.80
2019-04-22T02:39:16.145Z,36.27
2019-04-22T02:42:14.332Z,39.87
2019-04-22T02:45:42.480Z,38.37
2019-04-22T02:51:40.810Z,43.10
2019-04-22T02:54:55.122Z,38.93
2019-04-22T02:57:57.688Z,43.33
2019-04-22T03:01:13.963Z,27.30
2019-04-22T03:04:22.801Z,22.17
2019-04-22T03:07:23.481Z,30.17
2019-04-22T03:10:46.139Z,23.03
2019-04-22T03:13:46.836Z,21.80
2019-04-22T03:16:57.824Z,27.17
2019-04-22T03:20:02.040Z,27.40
2019-04-22T03:23:16.979Z,28.83
2019-04-22T03:26:18.808Z,27.20
2019-04-22T03:29:56.335Z,26.77
2019-04-22T03:36:05.303Z,46.87
2019-04-22T03:39:29.685Z,46.60
2019-04-22T03:42:21.547Z,52.37
2019-04-22T03:51:49.830Z,53.43
2019-04-22T04:01:29.563Z,50.10
2019-04-22T04:07:31.011Z,48.90
2019-04-22T04:13:41.612Z,47.27
2019-04-22T04:16:56.202Z,43.57
2019-04-22T04:23:18.984Z,42.43
2019-04-22T04:26:18.897Z,38.77
2019-04-22T04:29:36.254Z,41.43
2019-04-22T04:32:51.313Z,37.17
2019-04-22T04:39:10.922Z,36.93
2019-04-22T04:42:04.734Z,34.13
2019-04-22T04:45:23.438Z,36.27
2019-04-22T04:48:15.020Z,34.87
2019-04-22T04:51:35.342Z,34.07
2019-04-22T04:54:48.714Z,30.57
2019-04-22T05:00:58.045Z,26.87
2019-04-22T05:04:04.709Z,26.63
2019-04-22T05:07:09.233Z,23.97
2019-04-22T05:13:39.728Z,24.00
2019-04-22T05:16:42.786Z,26.00
2019-04-22T05:22:43.147Z,22.60
2019-04-22T05:25:40.838Z,24.53
2019-04-22T05:28:54.555Z,22.57
2019-04-22T05:32:03.157Z,23.00
2019-04-22T05:38:20.151Z,20.57
2019-04-22T05:41:27.217Z,24.27
2019-04-22T05:44:37.208Z,21.73
2019-04-22T05:47:42.205Z,19.57
2019-04-22T05:50:52.654Z,22.30
2019-04-22T05:53:59.394Z,20.77
2019-04-22T05:57:07.709Z,18.30
2019-04-22T06:00:18.367Z,21.40
2019-04-22T06:03:16.511Z,15.73
2019-04-22T06:06:32.200Z,17.47
2019-04-22T06:09:36.830Z,16.33
2019-04-22T06:12:41.752Z,19.07
2019-04-22T06:15:52.997Z,16.07
2019-04-22T06:19:07.456Z,16.57
2019-04-22T06:22:16.851Z,14.87
2019-04-22T06:25:27.616Z,14.00
2019-04-22T06:28:38.773Z,14.07
2019-04-22T06:31:52.563Z,14.47
2019-04-22T06:34:54.660Z,15.33
2019-04-22T06:38:19.138Z,15.97
2019-04-22T06:41:08.601Z,13.37
2019-04-22T06:44:22.637Z,15.70
2019-04-22T06:47:28.677Z,16.70
2019-04-22T06:50:31.465Z,13.53
2019-04-22T06:53:34.423Z,13.23
2019-04-22T06:56:43.132Z,14.57
2019-04-22T06:59:53.767Z,17.07
2019-04-22T07:03:27.224Z,13.70
2019-04-22T07:06:09.495Z,13.63
2019-04-22T07:12:24.338Z,11.13
2019-04-22T07:15:46.778Z,13.63
2019-04-22T07:18:37.306Z,13.53
2019-04-22T07:21:50.862Z,12.60
2019-04-22T07:25:13.966Z,14.63
2019-04-22T07:28:05.084Z,10.77
2019-04-22T07:31:12.974Z,14.37
2019-04-22T07:34:29.630Z,12.63
2019-04-22T07:40:40.507Z,10.27
2019-04-22T07:44:02.945Z,11.17
2019-04-22T07:47:00.931Z,11.87
2019-04-22T07:53:08.340Z,15.27
2019-04-22T07:56:18.660Z,9.23
2019-04-22T08:02:39.131Z,11.67
2019-04-22T08:08:53.535Z,11.60
2019-04-22T08:15:05.673Z,10.40
2019-04-22T08:18:17.526Z,9.63
2019-04-22T08:21:16.295Z,10.17
2019-04-22T08:24:35.969Z,10.43
2019-04-22T08:27:47.130Z,8.90
2019-04-22T08:34:02.073Z,9.37
2019-04-22T08:40:21.085Z,10.40
2019-04-22T08:43:26.782Z,8.57
2019-04-22T08:46:33.997Z,8.53
2019-04-22T08:49:42.472Z,9.80
2019-04-22T08:52:55.593Z,8.63
2019-04-22T08:56:07.825Z,10.50
2019-04-22T08:59:11.047Z,10.13
2019-04-22T09:02:17.124Z,7.73
2019-04-22T09:05:37.366Z,8.77
2019-04-22T09:08:35.672Z,9.40
2019-04-22T09:11:44.411Z,8.77
2019-04-22T09:14:45.618Z,10.03
2019-04-22T09:21:14.671Z,8.63
2019-04-22T09:24:10.550Z,10.50
2019-04-22T09:27:31.769Z,9.90
2019-04-22T09:30:56.658Z,10.00
2019-04-22T09:33:53.613Z,11.63
2019-04-22T09:37:20.429Z,9.40
2019-04-22T09:40:35.208Z,9.00
2019-04-22T09:43:32.199Z,8.23
2019-04-22T09:49:51.956Z,10.93
2019-04-22T09:52:54.653Z,9.50
2019-04-22T09:56:03.953Z,12.30
2019-04-22T09:59:07.587Z,10.07
2019-04-22T10:02:37.083Z,9.13
2019-04-22T10:05:30.246Z,10.43
2019-04-22T10:08:43.546Z,10.00
2019-04-22T10:14:49.496Z,11.93
2019-04-22T10:17:56.547Z,13.40
2019-04-22T10:21:12.744Z,10.40
2019-04-22T10:24:13.528Z,10.63
2019-04-22T10:27:20.622Z,9.00
2019-04-22T10:30:38.343Z,13.37
2019-04-22T10:33:34.187Z,13.43
2019-04-22T10:36:21.458Z,12.53
2019-04-22T10:39:41.199Z,13.53
2019-04-22T10:42:45.173Z,13.63
2019-04-22T10:45:52.324Z,10.63
2019-04-22T10:49:02.116Z,12.67
2019-04-22T10:52:08.736Z,10.33
2019-04-22T10:55:15.270Z,9.33
2019-04-22T10:58:22.897Z,12.47
2019-04-22T11:01:29.681Z,10.03
2019-04-22T11:04:36.404Z,12.40
2019-04-22T11:07:51.343Z,12.10
2019-04-22T11:11:06.861Z,14.00
2019-04-22T11:14:01.937Z,11.30
2019-04-22T11:17:08.961Z,10.70
2019-04-22T11:20:15.873Z,12.67
2019-04-22T11:23:22.716Z,11.23
2019-04-22T11:26:29.926Z,8.93
2019-04-22T11:29:39.377Z,13.20
2019-04-22T11:32:46.588Z,13.07
2019-04-22T11:35:53.368Z,11.20
2019-04-22T11:39:05.398Z,11.67
2019-04-22T11:42:10.037Z,10.03
2019-04-22T11:45:19.907Z,8.33
2019-04-22T11:48:29.214Z,11.03
2019-04-22T11:51:36.292Z,9.97
2019-04-22T11:54:43.245Z,9.50
2019-04-22T11:57:50.035Z,13.00
2019-04-22T12:00:57.309Z,10.60
2019-04-22T12:04:04.593Z,10.43
2019-04-22T12:07:12.818Z,10.47
2019-04-22T12:10:29.628Z,10.67
2019-04-22T12:13:33.689Z,12.07
2019-04-22T12:16:41.362Z,12.67
2019-04-22T12:19:52.650Z,11.33
2019-04-22T12:22:59.056Z,13.07
2019-04-22T12:26:12.733Z,12.13
2019-04-22T12:29:17.150Z,12.60
2019-04-22T12:32:23.277Z,13.57
2019-04-22T12:35:30.433Z,14.63
2019-04-22T12:38:37.742Z,12.83
2019-04-22T12:41:44.393Z,13.07
2019-04-22T12:44:51.160Z,12.80
2019-04-22T12:48:04.716Z,14.63
2019-04-22T12:51:13.278Z,16.73
2019-04-22T12:54:21.182Z,14.30
2019-04-22T12:57:28.322Z,20.00
2019-04-22T13:00:36.313Z,17.37
2019-04-22T13:03:52.031Z,14.60
2019-04-22T13:06:59.705Z,18.53
2019-04-22T13:10:10.270Z,14.23
2019-04-22T13:13:16.785Z,16.97
2019-04-22T13:16:23.133Z,14.73
2019-04-22T13:19:32.226Z,13.00
2019-04-22T13:22:40.975Z,14.93
2019-04-22T13:25:49.016Z,14.30
2019-04-22T13:28:59.079Z,14.70
2019-04-22T13:32:06.870Z,12.03
2019-04-22T13:35:15.381Z,13.83
2019-04-22T13:38:24.858Z,13.90
2019-04-22T13:41:39.886Z,12.87
2019-04-22T13:44:39.770Z,13.80
2019-04-22T13:48:02.992Z,13.57
2019-04-22T13:51:30.090Z,11.90
2019-04-22T13:57:58.426Z,10.97
2019-04-22T14:00:54.393Z,10.43
2019-04-22T14:04:38.820Z,10.83
2019-04-22T14:07:53.146Z,14.37
2019-04-22T14:11:14.916Z,14.73
2019-04-22T14:14:10.918Z,11.20
2019-04-22T14:17:29.475Z,10.00
2019-04-22T14:20:36.847Z,10.07
2019-04-22T14:27:24.662Z,8.57
2019-04-22T14:30:22.030Z,11.43
2019-04-22T14:33:30.178Z,13.00
2019-04-22T14:36:37.496Z,8.57
2019-04-22T14:39:48.181Z,10.27
2019-04-22T14:43:13.810Z,12.20
2019-04-22T14:46:36.569Z,8.70
2019-04-22T14:49:36.876Z,10.17
2019-04-22T14:52:50.657Z,6.97
2019-04-22T14:55:40.363Z,7.17
2019-04-22T14:58:47.119Z,7.50
2019-04-22T15:01:58.055Z,6.10
2019-04-22T15:08:17.382Z,10.47
2019-04-22T15:11:28.931Z,8.40
2019-04-22T15:14:35.519Z,8.23
2019-04-22T15:18:03.862Z,8.97
2019-04-22T15:21:14.505Z,10.07
2019-04-22T15:24:29.531Z,6.67
2019-04-22T15:27:37.375Z,8.13
2019-04-22T15:30:44.000Z,11.30
2019-04-22T15:33:52.390Z,7.60
2019-04-22T15:37:02.344Z,9.47
2019-04-22T15:40:13.056Z,8.10
2019-04-22T15:43:22.761Z,6.93
2019-04-22T15:46:37.121Z,7.43
2019-04-22T15:49:45.908Z,7.90
2019-04-22T15:52:55.550Z,6.83
2019-04-22T15:56:00.865Z,8.43
2019-04-22T15:59:28.692Z,5.20
2019-04-22T16:02:19.491Z,8.43
2019-04-22T16:05:26.034Z,11.53
2019-04-22T16:08:35.155Z,6.50
2019-04-22T16:11:42.282Z,7.43
2019-04-22T16:14:56.972Z,6.00
2019-04-22T16:18:10.566Z,5.10
2019-04-22T16:21:45.496Z,6.77
2019-04-22T16:25:02.041Z,7.57
2019-04-22T16:31:47.693Z,7.13
2019-04-22T16:34:54.699Z,7.27
2019-04-22T16:38:01.544Z,8.67
2019-04-22T16:41:10.759Z,7.73
2019-04-22T16:44:20.557Z,8.10
2019-04-22T16:47:29.480Z,10.03
2019-04-22T16:50:56.493Z,7.67
2019-04-22T16:54:08.546Z,8.27
2019-04-22T16:57:15.778Z,7.10
2019-04-22T17:00:22.673Z,6.40
2019-04-22T17:03:48.812Z,6.87
2019-04-22T17:06:55.509Z,8.77
2019-04-22T17:10:02.043Z,7.70
2019-04-22T17:13:16.863Z,10.90
2019-04-22T17:16:18.167Z,8.90
2019-04-22T17:19:27.035Z,7.23
2019-04-22T17:22:33.604Z,8.33
2019-04-22T17:25:40.544Z,7.93
2019-04-22T17:28:47.218Z,8.30
2019-04-22T17:32:02.996Z,15.50
2019-04-22T17:35:02.249Z,13.23
2019-04-22T17:38:16.341Z,10.27
2019-04-22T17:41:28.605Z,9.27
2019-04-22T17:44:58.516Z,8.47
2019-04-22T17:48:23.982Z,11.23
2019-04-22T17:54:34.001Z,14.03
2019-04-22T17:57:38.476Z,14.00
2019-04-22T18:00:56.613Z,27.23
2019-04-22T18:03:49.753Z,10.37
2019-04-22T18:07:20.369Z,8.07
2019-04-22T18:13:38.206Z,11.70
2019-04-22T18:16:43.152Z,9.63
2019-04-22T18:19:45.984Z,8.37
2019-04-22T18:23:12.703Z,7.67
2019-04-22T18:26:32.277Z,9.30
2019-04-22T18:29:44.843Z,12.60
2019-04-22T18:33:03.139Z,9.97
2019-04-22T18:36:02.581Z,7.90
2019-04-22T18:39:36.267Z,10.00
2019-04-22T18:42:23.984Z,8.60
2019-04-22T18:45:47.469Z,10.10
2019-04-22T18:48:53.965Z,11.17
2019-04-22T18:52:19.627Z,8.60
2019-04-22T18:55:52.986Z,8.90
2019-04-22T18:58:55.867Z,7.57
2019-04-22T19:02:14.262Z,7.30
2019-04-22T19:05:40.104Z,7.70
2019-04-22T19:09:01.737Z,12.00
2019-04-22T19:12:24.125Z,6.10
2019-04-22T19:15:25.237Z,10.73
2019-04-22T19:18:36.447Z,11.20
2019-04-22T19:21:43.365Z,9.93
2019-04-22T19:24:47.333Z,10.83
2019-04-22T19:31:52.668Z,10.43
2019-04-22T19:34:57.372Z,9.70
2019-04-22T19:37:59.910Z,7.40
2019-04-22T19:41:19.971Z,8.10
2019-04-22T19:44:36.393Z,11.43
2019-04-22T19:47:41.869Z,10.20
2019-04-22T19:51:04.745Z,10.07
2019-04-22T19:54:12.595Z,9.27
2019-04-22T19:57:11.607Z,8.87
2019-04-22T20:00:34.004Z,9.33
2019-04-22T20:04:28.218Z,9.53
2019-04-22T20:07:24.829Z,13.33
2019-04-22T20:10:40.242Z,10.43
2019-04-22T20:13:49.931Z,13.23
2019-04-22T20:16:48.934Z,10.23
2019-04-22T20:20:20.719Z,12.60
2019-04-22T20:23:33.035Z,13.40
2019-04-22T20:27:07.062Z,13.77
2019-04-22T20:30:28.281Z,15.67
2019-04-22T20:33:46.559Z,10.17
2019-04-22T20:36:57.004Z,12.67
2019-04-22T20:39:58.563Z,10.23
2019-04-22T20:43:25.150Z,10.97
2019-04-22T20:46:31.876Z,13.07
2019-04-22T20:49:44.495Z,12.50
2019-04-22T20:53:11.696Z,12.73
2019-04-22T20:56:18.899Z,13.67
2019-04-22T20:59:29.937Z,13.43
2019-04-22T21:02:31.272Z,13.43
2019-04-22T21:05:52.630Z,14.90
2019-04-22T21:09:15.531Z,14.40
2019-04-22T21:12:13.750Z,13.23
2019-04-22T21:15:37.440Z,13.30
2019-04-22T21:18:39.137Z,12.17
2019-04-22T21:21:57.763Z,11.70
2019-04-22T21:24:57.566Z,14.33
2019-04-22T21:28:18.107Z,12.07
2019-04-22T21:31:23.504Z,11.73
2019-04-22T21:34:26.378Z,11.17
2019-04-22T21:37:44.443Z,11.07
2019-04-22T21:41:12.627Z,11.83
2019-04-22T21:44:21.225Z,14.80
2019-04-22T21:47:40.381Z,10.30
2019-04-22T21:50:54.331Z,11.67
2019-04-22T21:54:18.291Z,11.07
2019-04-22T21:58:02.653Z,12.53
2019-04-22T22:01:29.260Z,11.17
2019-04-22T22:04:29.188Z,12.87
2019-04-22T22:07:27.664Z,10.97
2019-04-22T22:10:51.152Z,14.23
2019-04-22T22:14:02.386Z,15.37
2019-04-22T22:17:02.043Z,11.63
2019-04-22T22:20:21.327Z,12.73
2019-04-22T22:23:40.823Z,13.20
2019-04-22T22:27:14.357Z,14.63
2019-04-22T22:30:48.053Z,13.00
2019-04-22T22:33:35.532Z,11.47
2019-04-22T22:36:40.879Z,9.80
2019-04-22T22:40:03.505Z,15.07
2019-04-22T22:43:17.272Z,14.43
2019-04-22T22:46:31.903Z,13.00
2019-04-22T23:00:01.742Z,15.40
2019-04-22T23:06:36.991Z,12.57
2019-04-22T23:09:36.658Z,12.47
2019-04-22T23:13:08.388Z,13.23
2019-04-22T23:16:00.821Z,15.90
2019-04-22T23:19:06.846Z,17.27
2019-04-22T23:23:06.206Z,12.83
2019-04-22T23:26:06.629Z,15.70
2019-04-22T23:29:34.365Z,15.80
2019-04-22T23:32:39.945Z,13.00
2019-04-22T23:36:18.670Z,14.13
2019-04-22T23:39:48.171Z,16.87
2019-04-22T23:42:52.829Z,13.00
2019-04-22T23:46:02.278Z,11.93
2019-04-22T23:49:08.011Z,15.97
2019-04-22T23:52:30.551Z,15.57
2019-04-22T23:55:43.619Z,18.57
2019-04-22T23:59:00.929Z,12.77
